ココス (キーリング) 諸島 の空港の天気 - METARとTAF

ココス島国際空港 ( YPCC / CCK ) - ココス諸島 ココス (キーリング) 諸島
飛行場実況気象(Metar)
観測時間08/22 23:00 CCT (08/22 16:30 UTC)
風向・風速東南東 6m/s
視程10km以上
天気現象
全天の4割程度の雲 雲底高度 640m
気温26℃
湿度79%
気圧1015hPa
METARYPCC 221630Z AUTO 11011KT 9999 // SCT021 26/22 Q1015 RF00.0/000.2
過去の天気等 Google飛行場航空写真 Wunderground天気予報

過去48時間のMETAR

飛行場予報(TAF)
発表時間: 8/22 17:51 CCT (8/22 11:21 UTC)
予報対象時間: 22日18時 CCT ~ 23日18時 CCT
風向・風速東 7m/s
視程10km以上
天気現象弱いしゅう雨
全天の4割程度の雲 雲底高度 550m
TAF YPCC 221121Z 2212/2312 10014KT 9999 -SHRA SCT018